createdAt,value
2023-01-22T00:00:01.482Z,99018.75
2023-01-22T00:02:28.498Z,99015.84
2023-01-22T00:04:55.057Z,99008.13
2023-01-22T00:07:21.601Z,99012.56
2023-01-22T00:09:48.113Z,99011.06
2023-01-22T00:12:15.121Z,99012.50
2023-01-22T00:14:43.350Z,99008.38
2023-01-22T00:17:10.120Z,99008.28
2023-01-22T00:19:36.629Z,99008.75
2023-01-22T00:22:03.284Z,99003.13
2023-01-22T00:24:29.844Z,99007.03
2023-01-22T00:26:56.835Z,98999.50
2023-01-22T00:29:23.407Z,98989.25
2023-01-22T00:31:50.425Z,98991.50
2023-01-22T00:34:17.057Z,99000.59
2023-01-22T00:36:43.634Z,99001.47
2023-01-22T00:39:10.463Z,98993.63
2023-01-22T00:41:37.074Z,98996.06
2023-01-22T00:44:03.659Z,98990.69
2023-01-22T00:46:30.239Z,98996.53
2023-01-22T00:48:56.894Z,98990.09
2023-01-22T00:51:23.583Z,98998.38
2023-01-22T00:53:50.166Z,98996.78
2023-01-22T00:56:16.953Z,98998.34
2023-01-22T00:58:43.679Z,98989.53
2023-01-22T01:01:10.686Z,98993.63
2023-01-22T01:03:37.726Z,98994.00
2023-01-22T01:06:11.461Z,98996.03
2023-01-22T01:08:42.212Z,98994.56
2023-01-22T01:11:12.506Z,99004.50
2023-01-22T01:13:43.071Z,99001.34
2023-01-22T01:16:17.034Z,99001.97
2023-01-22T01:18:45.093Z,98992.66
2023-01-22T01:21:12.545Z,98992.25
2023-01-22T01:23:42.058Z,98993.06
2023-01-22T01:26:15.172Z,98985.63
2023-01-22T01:28:42.649Z,98988.56
2023-01-22T01:31:11.246Z,98998.84
2023-01-22T01:33:38.232Z,98990.06
2023-01-22T01:36:16.614Z,98991.41
2023-01-22T01:38:44.014Z,98985.78
2023-01-22T01:41:15.010Z,98983.25
2023-01-22T01:43:42.045Z,98991.41
2023-01-22T01:46:18.836Z,98978.56
2023-01-22T01:48:48.315Z,98984.13
2023-01-22T01:51:35.722Z,98983.63
2023-01-22T01:54:03.830Z,98979.84
2023-01-22T01:56:35.450Z,98970.00
2023-01-22T01:59:10.998Z,98975.47
2023-01-22T02:01:37.848Z,98972.41
2023-01-22T02:04:04.456Z,98979.19
2023-01-22T02:06:31.033Z,98977.00
2023-01-22T02:09:00.354Z,98974.28
2023-01-22T02:11:27.978Z,98978.34
2023-01-22T02:14:04.240Z,98972.22
2023-01-22T02:16:31.079Z,98974.28
2023-01-22T02:18:57.797Z,98970.56
2023-01-22T02:21:36.302Z,98967.00
2023-01-22T02:24:12.039Z,98976.53
2023-01-22T02:26:39.926Z,98973.72
2023-01-22T02:29:09.035Z,98970.75
2023-01-22T02:31:37.156Z,98967.16
2023-01-22T02:34:05.885Z,98964.56
2023-01-22T02:36:34.321Z,98962.88
2023-01-22T02:39:01.097Z,98973.75
2023-01-22T02:41:28.233Z,98974.25
2023-01-22T02:43:54.768Z,98972.34
2023-01-22T02:46:25.323Z,98975.91
2023-01-22T02:48:52.002Z,98975.91
2023-01-22T02:51:18.854Z,98979.59
2023-01-22T02:53:49.784Z,98983.94
2023-01-22T02:56:16.714Z,98976.56
2023-01-22T02:58:43.275Z,98979.31
2023-01-22T03:01:20.637Z,98971.09
2023-01-22T03:04:12.142Z,98970.16
2023-01-22T03:06:44.105Z,98975.00
2023-01-22T03:09:12.313Z,98969.72
2023-01-22T03:11:40.918Z,98965.38
2023-01-22T03:14:30.512Z,98960.16
2023-01-22T03:17:15.783Z,98961.84
2023-01-22T03:20:00.954Z,98962.72
2023-01-22T03:22:28.382Z,98967.38
2023-01-22T03:24:58.662Z,98971.78
2023-01-22T03:27:26.869Z,98966.88
2023-01-22T03:29:54.437Z,98970.91
2023-01-22T03:32:21.271Z,98957.41
2023-01-22T03:34:47.870Z,98963.22
2023-01-22T03:37:15.149Z,98967.31
2023-01-22T03:39:44.339Z,98964.16
2023-01-22T03:42:17.608Z,98963.97
2023-01-22T03:44:44.841Z,98963.00
2023-01-22T03:47:11.449Z,98975.25
2023-01-22T03:49:38.096Z,98968.63
2023-01-22T03:52:05.678Z,98974.28
2023-01-22T03:54:32.238Z,98967.75
2023-01-22T03:57:02.160Z,98973.56
2023-01-22T03:59:31.985Z,98974.13
2023-01-22T04:01:58.903Z,98971.44
2023-01-22T04:04:25.683Z,98965.91
2023-01-22T04:06:52.348Z,98965.00
2023-01-22T04:09:19.077Z,98975.69
2023-01-22T04:11:47.156Z,98969.31
2023-01-22T04:14:15.331Z,98972.97
2023-01-22T04:16:52.166Z,98975.41
2023-01-22T04:19:50.913Z,98971.13
2023-01-22T04:22:36.515Z,98979.69
2023-01-22T04:25:03.851Z,98969.09
2023-01-22T04:27:31.312Z,98969.75
2023-01-22T04:29:58.254Z,98971.53
2023-01-22T04:32:24.905Z,98969.31
2023-01-22T04:35:14.802Z,98970.56
2023-01-22T04:37:49.365Z,98975.06
2023-01-22T04:40:16.579Z,98977.72
2023-01-22T04:42:44.955Z,98982.66
2023-01-22T04:45:11.792Z,98981.81
2023-01-22T04:47:43.203Z,98982.94
2023-01-22T04:50:16.307Z,98983.28
2023-01-22T04:52:43.218Z,98976.66
2023-01-22T04:55:13.732Z,98985.41
2023-01-22T04:57:49.269Z,98985.44
2023-01-22T05:00:17.251Z,98989.66
2023-01-22T05:02:44.644Z,98992.75
2023-01-22T05:05:11.256Z,98996.31
2023-01-22T05:07:38.070Z,98995.41
2023-01-22T05:10:05.013Z,98996.97
2023-01-22T05:12:31.649Z,99003.50
2023-01-22T05:15:00.119Z,99004.22
2023-01-22T05:17:26.815Z,99000.09
2023-01-22T05:19:53.412Z,99014.03
2023-01-22T05:22:21.210Z,99008.03
2023-01-22T05:24:48.335Z,99012.09
2023-01-22T05:27:15.595Z,99011.66
2023-01-22T05:29:52.159Z,99012.47
2023-01-22T05:32:38.526Z,99015.00
2023-01-22T05:35:06.102Z,99014.50
2023-01-22T05:37:35.544Z,99008.31
2023-01-22T05:40:05.340Z,99020.22
2023-01-22T05:42:34.119Z,99013.94
2023-01-22T05:45:01.780Z,99016.94
2023-01-22T05:47:29.974Z,99014.41
2023-01-22T05:50:14.215Z,99019.69
2023-01-22T05:52:43.220Z,99024.63
2023-01-22T05:55:10.028Z,99020.22
2023-01-22T05:57:48.821Z,99026.41
2023-01-22T06:00:18.332Z,99026.31
2023-01-22T06:02:50.188Z,99026.22
2023-01-22T06:05:16.821Z,99027.25
2023-01-22T06:07:47.253Z,99027.03
2023-01-22T06:10:13.801Z,99031.19
2023-01-22T06:12:46.284Z,99036.66
2023-01-22T06:15:13.340Z,99036.72
2023-01-22T06:17:44.495Z,99044.44
2023-01-22T06:20:11.355Z,99046.03
2023-01-22T06:22:37.981Z,99045.59
2023-01-22T06:25:04.989Z,99047.19
2023-01-22T06:27:49.856Z,99043.22
2023-01-22T06:30:17.460Z,99050.88
2023-01-22T06:32:45.130Z,99054.97
2023-01-22T06:35:13.109Z,99052.72
2023-01-22T06:37:39.841Z,99058.22
2023-01-22T06:40:07.045Z,99058.16
2023-01-22T06:42:40.651Z,99054.63
2023-01-22T06:45:08.077Z,99058.41
2023-01-22T06:47:36.366Z,99064.16
2023-01-22T06:50:03.719Z,99055.38
2023-01-22T06:52:30.274Z,99063.09
2023-01-22T06:54:57.348Z,99070.06
2023-01-22T06:57:25.315Z,99061.94
2023-01-22T06:59:52.488Z,99066.25
2023-01-22T07:02:21.661Z,99071.94
2023-01-22T07:04:48.325Z,99080.47
2023-01-22T07:07:15.267Z,99073.88
2023-01-22T07:09:41.850Z,99074.69
2023-01-22T07:12:08.451Z,99073.28
2023-01-22T07:14:37.437Z,99079.31
2023-01-22T07:17:04.557Z,99087.78
2023-01-22T07:19:31.724Z,99091.78
2023-01-22T07:21:58.284Z,99094.69
2023-01-22T07:24:24.953Z,99090.00
2023-01-22T07:26:51.528Z,99098.00
2023-01-22T07:29:18.120Z,99096.56
2023-01-22T07:31:49.487Z,99096.06
2023-01-22T07:34:16.401Z,99096.06
2023-01-22T07:36:42.966Z,99095.31
2023-01-22T07:39:09.497Z,99102.06
2023-01-22T07:41:36.547Z,99101.34
2023-01-22T07:44:11.223Z,99100.81
2023-01-22T07:46:39.142Z,99099.28
2023-01-22T07:49:06.355Z,99105.31
2023-01-22T07:51:35.051Z,99101.63
2023-01-22T07:54:01.698Z,99107.00
2023-01-22T07:56:28.227Z,99101.31
2023-01-22T07:58:54.838Z,99104.06
2023-01-22T08:01:21.489Z,99113.78
2023-01-22T08:03:48.446Z,99114.06
2023-01-22T08:06:18.088Z,99118.31
2023-01-22T08:08:44.657Z,99118.84
2023-01-22T08:11:11.227Z,99121.75
2023-01-22T08:13:38.152Z,99123.91
2023-01-22T08:16:05.038Z,99122.31
2023-01-22T08:18:31.715Z,99127.91
2023-01-22T08:21:02.689Z,99127.44
2023-01-22T08:23:29.539Z,99129.00
2023-01-22T08:26:00.546Z,99132.81
2023-01-22T08:28:27.542Z,99138.81
2023-01-22T08:30:58.538Z,99148.25
2023-01-22T08:33:25.335Z,99151.75
2023-01-22T08:35:51.963Z,99152.72
2023-01-22T08:38:20.945Z,99165.09
2023-01-22T08:40:51.546Z,99151.75
2023-01-22T08:43:18.394Z,99157.59
2023-01-22T08:45:47.992Z,99156.50
2023-01-22T08:48:14.513Z,99149.28
2023-01-22T08:50:41.067Z,99159.97
2023-01-22T08:53:07.626Z,99160.22
2023-01-22T08:55:34.190Z,99150.44
2023-01-22T08:58:03.710Z,99159.09
2023-01-22T09:00:30.364Z,99157.50
2023-01-22T09:02:58.823Z,99160.16
2023-01-22T09:05:26.399Z,99155.72
2023-01-22T09:07:52.925Z,99154.84
2023-01-22T09:10:21.675Z,99159.63
2023-01-22T09:12:48.754Z,99157.22
2023-01-22T09:15:15.369Z,99167.88
2023-01-22T09:17:42.475Z,99157.38
2023-01-22T09:20:09.724Z,99166.88
2023-01-22T09:22:36.463Z,99164.53
2023-01-22T09:25:03.157Z,99171.81
2023-01-22T09:27:29.705Z,99173.41
2023-01-22T09:29:56.257Z,99179.88
2023-01-22T09:32:23.050Z,99175.53
2023-01-22T09:34:49.640Z,99176.50
2023-01-22T09:37:16.223Z,99173.94
2023-01-22T09:39:42.800Z,99173.44
2023-01-22T09:42:17.743Z,99170.84
2023-01-22T09:44:46.633Z,99172.63
2023-01-22T09:47:23.615Z,99176.25
2023-01-22T09:50:00.829Z,99181.84
2023-01-22T09:52:33.146Z,99187.22
2023-01-22T09:55:02.781Z,99185.81
2023-01-22T09:57:31.916Z,99192.09
2023-01-22T09:59:59.159Z,99198.72
2023-01-22T10:02:30.557Z,99194.09
2023-01-22T10:05:05.305Z,99201.59
2023-01-22T10:07:35.334Z,99201.03
2023-01-22T10:10:17.171Z,99193.78
2023-01-22T10:12:44.722Z,99198.09
2023-01-22T10:15:15.279Z,99192.88
2023-01-22T10:17:42.443Z,99197.16
2023-01-22T10:20:12.458Z,99199.09
2023-01-22T10:22:39.019Z,99198.94
2023-01-22T10:25:06.115Z,99195.19
2023-01-22T10:27:39.411Z,99194.69
2023-01-22T10:30:17.165Z,99202.66
2023-01-22T10:32:43.817Z,99203.31
2023-01-22T10:35:13.541Z,99203.19
2023-01-22T10:37:56.570Z,99209.34
2023-01-22T10:40:35.887Z,99216.69
2023-01-22T10:43:13.999Z,99212.41
2023-01-22T10:46:13.164Z,99211.75
2023-01-22T10:48:39.685Z,99217.94
2023-01-22T10:51:27.446Z,99218.59
2023-01-22T10:53:55.651Z,99217.28
2023-01-22T10:56:35.747Z,99207.31
2023-01-22T10:59:05.193Z,99211.22
2023-01-22T11:01:35.188Z,99212.81
2023-01-22T11:04:20.667Z,99206.66
2023-01-22T11:06:57.761Z,99210.69
2023-01-22T11:09:46.719Z,99206.69
2023-01-22T11:12:20.131Z,99209.16
2023-01-22T11:14:48.141Z,99209.72
2023-01-22T11:17:26.852Z,99206.69
2023-01-22T11:19:59.872Z,99203.97
2023-01-22T11:22:33.415Z,99198.47
2023-01-22T11:25:00.059Z,99206.97
2023-01-22T11:27:48.732Z,99204.09
2023-01-22T11:30:54.235Z,99204.25
2023-01-22T11:33:20.726Z,99207.13
2023-01-22T11:35:56.152Z,99201.78
2023-01-22T11:38:51.335Z,99206.03
2023-01-22T11:41:40.696Z,99208.81
2023-01-22T11:44:36.796Z,99201.81
2023-01-22T11:47:22.016Z,99201.22
2023-01-22T11:50:02.791Z,99201.09
2023-01-22T11:52:48.362Z,99200.97
2023-01-22T11:55:39.999Z,99189.22
2023-01-22T11:58:09.329Z,99186.53
2023-01-22T12:00:46.438Z,99181.47
2023-01-22T12:03:52.505Z,99184.22
2023-01-22T12:06:42.142Z,99182.13
2023-01-22T12:10:01.897Z,99178.88
2023-01-22T12:12:41.970Z,99181.41
2023-01-22T12:15:42.298Z,99185.75
2023-01-22T12:18:33.713Z,99183.00
2023-01-22T12:21:07.147Z,99184.09
2023-01-22T12:23:38.164Z,99185.38
2023-01-22T12:26:10.811Z,99184.31
2023-01-22T12:28:54.906Z,99187.22
2023-01-22T12:31:35.391Z,99187.31
2023-01-22T12:34:04.978Z,99187.50
2023-01-22T12:36:32.693Z,99190.34
2023-01-22T12:39:14.931Z,99187.25
2023-01-22T12:42:23.245Z,99188.75
2023-01-22T12:45:20.524Z,99187.72
2023-01-22T12:48:28.772Z,99188.69
2023-01-22T12:50:56.565Z,99195.31
2023-01-22T12:53:30.572Z,99200.06
2023-01-22T12:56:08.462Z,99198.38
2023-01-22T12:58:40.925Z,99194.97
2023-01-22T13:01:11.336Z,99193.44
2023-01-22T13:03:42.053Z,99193.44
2023-01-22T13:06:30.815Z,99196.28
2023-01-22T13:08:57.700Z,99195.16
2023-01-22T13:11:38.245Z,99198.47
2023-01-22T13:14:26.701Z,99199.34
2023-01-22T13:16:55.107Z,99197.78
2023-01-22T13:19:25.365Z,99202.72
2023-01-22T13:21:53.043Z,99206.66
2023-01-22T13:24:21.035Z,99207.56
2023-01-22T13:27:02.759Z,99208.56
2023-01-22T13:29:36.806Z,99199.72
2023-01-22T13:32:06.046Z,99212.38
2023-01-22T13:34:32.803Z,99207.94
2023-01-22T13:36:59.835Z,99211.66
2023-01-22T13:39:30.489Z,99209.44
2023-01-22T13:42:01.496Z,99203.50
2023-01-22T13:44:37.915Z,99209.53
2023-01-22T13:47:04.980Z,99208.47
2023-01-22T13:49:34.830Z,99206.00
2023-01-22T13:52:07.235Z,99211.56
2023-01-22T13:54:38.608Z,99207.13
2023-01-22T13:57:06.459Z,99198.31
2023-01-22T13:59:35.275Z,99205.63
2023-01-22T14:02:21.409Z,99207.94
2023-01-22T14:04:48.734Z,99214.16
2023-01-22T14:07:32.408Z,99213.19
2023-01-22T14:10:13.346Z,99214.16
2023-01-22T14:12:42.816Z,99214.16
2023-01-22T14:15:20.571Z,99217.78
2023-01-22T14:17:49.728Z,99215.22
2023-01-22T14:20:17.615Z,99221.94
2023-01-22T14:22:44.368Z,99221.41
2023-01-22T14:25:10.898Z,99225.47
2023-01-22T14:27:46.124Z,99223.00
2023-01-22T14:30:15.418Z,99227.88
2023-01-22T14:32:43.069Z,99225.16
2023-01-22T14:35:16.388Z,99227.69
2023-01-22T14:37:42.944Z,99235.47
2023-01-22T14:40:11.764Z,99222.94
2023-01-22T14:42:38.402Z,99234.69
2023-01-22T14:45:05.334Z,99226.38
2023-01-22T14:47:32.012Z,99231.38
2023-01-22T14:49:58.804Z,99232.09
2023-01-22T14:52:25.444Z,99232.69
2023-01-22T14:54:52.114Z,99242.22
2023-01-22T14:57:25.539Z,99244.50
2023-01-22T14:59:52.249Z,99235.84
2023-01-22T15:02:21.679Z,99252.63
2023-01-22T15:04:48.467Z,99249.53
2023-01-22T15:07:15.055Z,99261.50
2023-01-22T15:09:44.312Z,99259.38
2023-01-22T15:12:12.931Z,99258.75
2023-01-22T15:14:39.556Z,99264.34
2023-01-22T15:17:06.593Z,99271.56
2023-01-22T15:19:40.976Z,99264.34
2023-01-22T15:22:08.360Z,99269.13
2023-01-22T15:24:35.280Z,99262.25
2023-01-22T15:27:01.886Z,99274.94
2023-01-22T15:29:28.549Z,99274.28
2023-01-22T15:31:55.211Z,99276.44
2023-01-22T15:34:21.910Z,99282.09
2023-01-22T15:36:48.490Z,99274.13
2023-01-22T15:39:15.173Z,99277.38
2023-01-22T15:41:42.671Z,99280.75
2023-01-22T15:44:11.777Z,99278.44
2023-01-22T15:46:42.024Z,99281.25
2023-01-22T15:49:10.285Z,99282.75
2023-01-22T15:51:37.275Z,99279.53
2023-01-22T15:54:05.444Z,99280.63
2023-01-22T15:56:34.531Z,99281.78
2023-01-22T15:59:01.454Z,99284.28
2023-01-22T16:01:28.587Z,99291.66
2023-01-22T16:03:56.259Z,99289.63
2023-01-22T16:06:25.104Z,99289.75
2023-01-22T16:08:53.727Z,99282.50
2023-01-22T16:11:21.203Z,99289.75
2023-01-22T16:13:47.754Z,99285.56
2023-01-22T16:16:23.169Z,99294.47
2023-01-22T16:18:50.399Z,99289.38
2023-01-22T16:21:18.476Z,99298.69
2023-01-22T16:23:46.103Z,99295.25
2023-01-22T16:26:17.639Z,99293.31
2023-01-22T16:28:49.695Z,99296.91
2023-01-22T16:31:19.019Z,99298.47
2023-01-22T16:33:47.050Z,99295.34
2023-01-22T16:36:16.401Z,99298.09
2023-01-22T16:38:43.465Z,99302.81
2023-01-22T16:41:24.477Z,99305.09
2023-01-22T16:44:09.015Z,99309.09
2023-01-22T16:46:40.682Z,99303.06
2023-01-22T16:49:14.668Z,99307.72
2023-01-22T16:51:44.286Z,99308.03
2023-01-22T16:54:27.975Z,99316.50
2023-01-22T16:57:05.275Z,99335.03
2023-01-22T16:59:33.541Z,99332.16
2023-01-22T17:02:02.009Z,99325.63
2023-01-22T17:04:29.186Z,99326.00
2023-01-22T17:06:57.717Z,99334.22
2023-01-22T17:09:35.833Z,99329.72
2023-01-22T17:12:05.060Z,99331.94
2023-01-22T17:14:35.729Z,99329.03
2023-01-22T17:17:02.907Z,99338.81
2023-01-22T17:19:29.456Z,99335.47
2023-01-22T17:21:57.943Z,99333.41
2023-01-22T17:24:29.018Z,99340.44
2023-01-22T17:26:57.932Z,99342.75
2023-01-22T17:29:25.212Z,99340.09
2023-01-22T17:31:52.478Z,99336.56
2023-01-22T17:34:19.551Z,99339.16
2023-01-22T17:36:51.415Z,99343.13
2023-01-22T17:39:19.933Z,99348.63
2023-01-22T17:41:46.629Z,99344.78
2023-01-22T17:44:13.472Z,99351.94
2023-01-22T17:46:40.528Z,99352.91
2023-01-22T17:49:07.073Z,99363.19
2023-01-22T17:51:34.770Z,99354.94
2023-01-22T17:54:03.172Z,99352.38
2023-01-22T17:56:32.612Z,99350.69
2023-01-22T17:59:01.760Z,99364.00
2023-01-22T18:01:30.732Z,99363.25
2023-01-22T18:03:58.663Z,99362.75
2023-01-22T18:06:25.263Z,99372.66
2023-01-22T18:08:52.030Z,99374.94
2023-01-22T18:11:20.894Z,99378.44
2023-01-22T18:13:47.966Z,99379.81
2023-01-22T18:16:17.073Z,99378.88
2023-01-22T18:18:45.524Z,99383.38
2023-01-22T18:21:16.748Z,99391.13
2023-01-22T18:23:46.117Z,99392.91
2023-01-22T18:26:13.513Z,99392.31
2023-01-22T18:28:40.108Z,99393.41
2023-01-22T18:31:14.663Z,99394.16
2023-01-22T18:33:42.353Z,99397.28
2023-01-22T18:36:13.669Z,99409.22
2023-01-22T18:38:40.599Z,99402.44
2023-01-22T18:41:10.484Z,99403.81
2023-01-22T18:43:38.196Z,99399.66
2023-01-22T18:46:07.137Z,99405.91
2023-01-22T18:48:34.193Z,99404.00
2023-01-22T18:51:01.090Z,99407.53
2023-01-22T18:53:29.639Z,99417.66
2023-01-22T18:56:06.525Z,99406.84
2023-01-22T18:58:36.385Z,99409.72
2023-01-22T19:01:17.274Z,99409.38
2023-01-22T19:03:46.338Z,99417.13
2023-01-22T19:06:16.023Z,99419.59
2023-01-22T19:08:57.659Z,99429.72
2023-01-22T19:11:24.785Z,99422.31
2023-01-22T19:13:55.671Z,99425.63
2023-01-22T19:16:23.055Z,99435.34
2023-01-22T19:18:54.653Z,99424.81
2023-01-22T19:21:22.708Z,99425.91
2023-01-22T19:23:52.031Z,99428.91
2023-01-22T19:26:22.552Z,99424.09
2023-01-22T19:28:51.248Z,99421.09
2023-01-22T19:31:24.091Z,99427.34
2023-01-22T19:33:53.145Z,99434.06
2023-01-22T19:36:21.213Z,99428.09
2023-01-22T19:38:48.211Z,99430.19
2023-01-22T19:41:15.339Z,99437.06
2023-01-22T19:43:42.520Z,99434.19
2023-01-22T19:46:12.098Z,99435.63
2023-01-22T19:48:39.429Z,99437.28
2023-01-22T19:51:09.393Z,99437.28
2023-01-22T19:53:36.956Z,99433.56
2023-01-22T19:56:04.819Z,99441.25
2023-01-22T19:58:31.404Z,99440.16
2023-01-22T20:00:58.257Z,99447.44
2023-01-22T20:03:26.488Z,99446.88
2023-01-22T20:05:53.147Z,99446.31
2023-01-22T20:08:19.699Z,99450.19
2023-01-22T20:10:46.679Z,99439.19
2023-01-22T20:13:13.244Z,99445.31
2023-01-22T20:15:41.813Z,99448.66
2023-01-22T20:18:09.769Z,99443.63
2023-01-22T20:20:36.775Z,99448.81
2023-01-22T20:23:03.874Z,99444.19
2023-01-22T20:25:32.088Z,99447.16
2023-01-22T20:27:59.713Z,99449.25
2023-01-22T20:30:26.749Z,99451.94
2023-01-22T20:32:55.629Z,99450.97
2023-01-22T20:35:23.071Z,99447.56
2023-01-22T20:37:49.672Z,99447.28
2023-01-22T20:40:16.323Z,99455.94
2023-01-22T20:42:42.876Z,99452.63
2023-01-22T20:45:09.991Z,99457.03
2023-01-22T20:47:36.836Z,99456.34
2023-01-22T20:50:07.043Z,99464.53
2023-01-22T20:52:33.607Z,99463.38
2023-01-22T20:55:02.681Z,99460.44
2023-01-22T20:57:31.390Z,99464.25
2023-01-22T20:59:57.994Z,99467.94
2023-01-22T21:02:24.656Z,99467.09
2023-01-22T21:04:52.759Z,99467.34
2023-01-22T21:07:19.708Z,99466.50
2023-01-22T21:09:46.314Z,99466.59
2023-01-22T21:12:13.696Z,99464.56
2023-01-22T21:14:40.296Z,99475.31
2023-01-22T21:17:06.993Z,99468.84
2023-01-22T21:19:33.662Z,99472.38
2023-01-22T21:22:01.046Z,99468.78
2023-01-22T21:24:27.907Z,99470.31
2023-01-22T21:26:54.465Z,99477.97
2023-01-22T21:29:24.738Z,99480.38
2023-01-22T21:31:52.550Z,99474.72
2023-01-22T21:34:21.419Z,99477.50
2023-01-22T21:36:49.182Z,99474.63
2023-01-22T21:39:19.021Z,99472.16
2023-01-22T21:41:45.926Z,99474.00
2023-01-22T21:44:36.376Z,99482.31
2023-01-22T21:47:03.810Z,99480.72
2023-01-22T21:49:30.704Z,99489.09
2023-01-22T21:52:05.821Z,99479.94
2023-01-22T21:54:36.723Z,99485.72
2023-01-22T21:57:03.691Z,99486.84
2023-01-22T21:59:32.136Z,99480.88
2023-01-22T22:01:58.746Z,99486.41
2023-01-22T22:04:26.934Z,99486.22
2023-01-22T22:06:53.719Z,99489.25
2023-01-22T22:09:28.631Z,99497.31
2023-01-22T22:11:58.610Z,99501.50
2023-01-22T22:14:25.340Z,99498.66
2023-01-22T22:16:52.467Z,99491.31
2023-01-22T22:19:19.839Z,99501.19
2023-01-22T22:21:46.905Z,99500.19
2023-01-22T22:24:13.611Z,99492.66
2023-01-22T22:26:40.551Z,99498.72
2023-01-22T22:29:08.312Z,99507.63
2023-01-22T22:31:35.444Z,99506.91
2023-01-22T22:34:02.073Z,99508.13
2023-01-22T22:36:29.887Z,99513.09
2023-01-22T22:38:56.433Z,99508.78
2023-01-22T22:41:26.268Z,99515.13
2023-01-22T22:43:54.153Z,99511.31
2023-01-22T22:46:28.642Z,99521.19
2023-01-22T22:48:56.595Z,99518.97
2023-01-22T22:51:24.408Z,99518.16
2023-01-22T22:53:56.442Z,99523.72
2023-01-22T22:56:23.517Z,99522.59
2023-01-22T22:58:50.421Z,99525.13
2023-01-22T23:01:20.038Z,99528.00
2023-01-22T23:03:47.238Z,99515.59
2023-01-22T23:06:16.736Z,99516.03
2023-01-22T23:08:45.398Z,99516.19
2023-01-22T23:11:14.452Z,99519.84
2023-01-22T23:13:44.726Z,99521.63
2023-01-22T23:16:13.386Z,99524.53
2023-01-22T23:18:40.102Z,99519.53
2023-01-22T23:21:08.856Z,99521.31
2023-01-22T23:23:35.930Z,99521.47
2023-01-22T23:26:05.513Z,99507.13
2023-01-22T23:28:32.073Z,99511.31
2023-01-22T23:31:04.177Z,99509.34
2023-01-22T23:33:30.844Z,99503.38
2023-01-22T23:36:05.454Z,99503.00
2023-01-22T23:38:32.016Z,99516.53
2023-01-22T23:41:03.077Z,99513.50
2023-01-22T23:43:29.940Z,99512.56
2023-01-22T23:45:56.529Z,99506.78
2023-01-22T23:48:23.465Z,99508.41
2023-01-22T23:50:51.490Z,99507.25
2023-01-22T23:53:18.202Z,99504.53
2023-01-22T23:55:44.810Z,99498.66
2023-01-22T23:58:14.728Z,99502.13
